Puig, Spain
Current Conditions -  °F | °C
As of 11:00 PM on Monday 22 Dec 2014 (Local Time) from LEBT Reporting Station
Clear Clear  
Wind Chill:   Ceiling: Unl
Heat Index:   Visibility: 1mi
Dew Point:   Wind: 6mph
Humidity: 93%   Direction: 360°N
Pressure: 30.45"   Gusts: NA
Location:  39.59°N, 0.3°W
Report Text: LEBT 222200Z AUTO 36005KT 1700 // NSC 07/06 Q1031
Loading
Personal Weather Stations






























Interactive Weather Map New forecast layout! Learn more

10-Day Weather Forecast

Advertisements
Track Severe Weather on mobile